sensor_id;sensor_type;location;lat;lon;timestamp;P1;durP1;ratioP1;P2;durP2;ratioP2
17369;SDS011;8802;52.402;4.920;2022-11-20T00:00:19;9.80;;;8.70;;
17369;SDS011;8802;52.402;4.920;2022-11-20T00:02:46;8.98;;;8.07;;
17369;SDS011;8802;52.402;4.920;2022-11-20T00:05:13;8.32;;;7.20;;
17369;SDS011;8802;52.402;4.920;2022-11-20T00:07:40;11.63;;;7.45;;
17369;SDS011;8802;52.402;4.920;2022-11-20T00:10:07;11.60;;;9.23;;
17369;SDS011;8802;52.402;4.920;2022-11-20T00:12:34;8.98;;;7.45;;
17369;SDS011;8802;52.402;4.920;2022-11-20T00:15:03;9.02;;;8.18;;
17369;SDS011;8802;52.402;4.920;2022-11-20T00:17:30;9.48;;;8.25;;
17369;SDS011;8802;52.402;4.920;2022-11-20T00:19:57;9.20;;;8.35;;
17369;SDS011;8802;52.402;4.920;2022-11-20T00:22:24;8.57;;;7.60;;
17369;SDS011;8802;52.402;4.920;2022-11-20T00:24:51;7.97;;;7.18;;
17369;SDS011;8802;52.402;4.920;2022-11-20T00:27:17;9.23;;;7.25;;
17369;SDS011;8802;52.402;4.920;2022-11-20T00:29:44;8.65;;;7.43;;
17369;SDS011;8802;52.402;4.920;2022-11-20T00:32:13;8.90;;;8.00;;
17369;SDS011;8802;52.402;4.920;2022-11-20T00:34:40;8.55;;;7.65;;
17369;SDS011;8802;52.402;4.920;2022-11-20T00:37:07;8.82;;;7.93;;
17369;SDS011;8802;52.402;4.920;2022-11-20T00:39:33;7.93;;;6.60;;
17369;SDS011;8802;52.402;4.920;2022-11-20T00:42:00;8.55;;;7.65;;
17369;SDS011;8802;52.402;4.920;2022-11-20T00:44:27;8.93;;;7.50;;
17369;SDS011;8802;52.402;4.920;2022-11-20T00:46:54;8.68;;;7.13;;
17369;SDS011;8802;52.402;4.920;2022-11-20T00:49:22;8.45;;;7.55;;
17369;SDS011;8802;52.402;4.920;2022-11-20T00:51:49;9.27;;;8.07;;
17369;SDS011;8802;52.402;4.920;2022-11-20T00:54:16;8.45;;;7.63;;
17369;SDS011;8802;52.402;4.920;2022-11-20T00:56:43;8.18;;;7.22;;
17369;SDS011;8802;52.402;4.920;2022-11-20T00:59:10;7.85;;;7.13;;
17369;SDS011;8802;52.402;4.920;2022-11-20T01:01:37;7.57;;;6.47;;
17369;SDS011;8802;52.402;4.920;2022-11-20T01:04:04;7.38;;;6.68;;
17369;SDS011;8802;52.402;4.920;2022-11-20T01:06:34;8.93;;;7.75;;
17369;SDS011;8802;52.402;4.920;2022-11-20T01:09:03;9.30;;;8.40;;
17369;SDS011;8802;52.402;4.920;2022-11-20T01:11:32;7.97;;;7.18;;
17369;SDS011;8802;52.402;4.920;2022-11-20T01:14:01;8.00;;;7.20;;
17369;SDS011;8802;52.402;4.920;2022-11-20T01:16:29;8.30;;;7.40;;
17369;SDS011;8802;52.402;4.920;2022-11-20T01:18:59;8.85;;;7.97;;
17369;SDS011;8802;52.402;4.920;2022-11-20T01:21:28;7.85;;;7.05;;
17369;SDS011;8802;52.402;4.920;2022-11-20T01:23:58;8.30;;;7.50;;
17369;SDS011;8802;52.402;4.920;2022-11-20T01:26:26;7.93;;;6.70;;
17369;SDS011;8802;52.402;4.920;2022-11-20T01:28:55;7.88;;;6.88;;
17369;SDS011;8802;52.402;4.920;2022-11-20T01:31:23;7.60;;;6.72;;
17369;SDS011;8802;52.402;4.920;2022-11-20T01:33:53;8.60;;;7.80;;
17369;SDS011;8802;52.402;4.920;2022-11-20T01:36:21;8.40;;;7.60;;
17369;SDS011;8802;52.402;4.920;2022-11-20T01:38:50;8.75;;;7.28;;
17369;SDS011;8802;52.402;4.920;2022-11-20T01:41:19;8.07;;;7.28;;
17369;SDS011;8802;52.402;4.920;2022-11-20T01:44:01;8.32;;;7.05;;
17369;SDS011;8802;52.402;4.920;2022-11-20T01:46:29;13.40;;;9.75;;
17369;SDS011;8802;52.402;4.920;2022-11-20T01:48:58;11.52;;;9.43;;
17369;SDS011;8802;52.402;4.920;2022-11-20T01:51:29;10.90;;;9.15;;
17369;SDS011;8802;52.402;4.920;2022-11-20T01:54:00;9.15;;;7.70;;
17369;SDS011;8802;52.402;4.920;2022-11-20T01:56:35;10.02;;;7.72;;
17369;SDS011;8802;52.402;4.920;2022-11-20T01:59:05;9.45;;;7.57;;
17369;SDS011;8802;52.402;4.920;2022-11-20T02:01:33;9.60;;;8.50;;
17369;SDS011;8802;52.402;4.920;2022-11-20T02:04:00;10.55;;;8.50;;
17369;SDS011;8802;52.402;4.920;2022-11-20T02:06:29;10.70;;;8.90;;
17369;SDS011;8802;52.402;4.920;2022-11-20T02:08:59;9.68;;;7.95;;
17369;SDS011;8802;52.402;4.920;2022-11-20T02:11:26;10.60;;;9.18;;
17369;SDS011;8802;52.402;4.920;2022-11-20T02:13:54;9.35;;;7.80;;
17369;SDS011;8802;52.402;4.920;2022-11-20T02:16:21;8.68;;;7.38;;
17369;SDS011;8802;52.402;4.920;2022-11-20T02:18:51;8.98;;;8.05;;
17369;SDS011;8802;52.402;4.920;2022-11-20T02:21:25;10.98;;;8.35;;
17369;SDS011;8802;52.402;4.920;2022-11-20T02:26:42;11.50;;;8.80;;
17369;SDS011;8802;52.402;4.920;2022-11-20T02:29:16;9.75;;;8.07;;
17369;SDS011;8802;52.402;4.920;2022-11-20T02:31:49;11.77;;;9.57;;
17369;SDS011;8802;52.402;4.920;2022-11-20T02:34:17;9.93;;;7.88;;
17369;SDS011;8802;52.402;4.920;2022-11-20T02:36:44;9.35;;;8.10;;
17369;SDS011;8802;52.402;4.920;2022-11-20T02:39:16;10.95;;;8.68;;
17369;SDS011;8802;52.402;4.920;2022-11-20T02:41:43;10.05;;;8.85;;
17369;SDS011;8802;52.402;4.920;2022-11-20T02:44:10;13.27;;;9.90;;
17369;SDS011;8802;52.402;4.920;2022-11-20T02:46:37;10.18;;;9.07;;
17369;SDS011;8802;52.402;4.920;2022-11-20T02:49:04;10.88;;;8.63;;
17369;SDS011;8802;52.402;4.920;2022-11-20T02:51:31;10.93;;;9.48;;
17369;SDS011;8802;52.402;4.920;2022-11-20T02:53:58;10.80;;;8.77;;
17369;SDS011;8802;52.402;4.920;2022-11-20T02:56:27;10.60;;;9.50;;
17369;SDS011;8802;52.402;4.920;2022-11-20T02:58:54;10.70;;;9.30;;
17369;SDS011;8802;52.402;4.920;2022-11-20T03:01:21;10.57;;;8.55;;
17369;SDS011;8802;52.402;4.920;2022-11-20T03:03:48;11.40;;;9.25;;
17369;SDS011;8802;52.402;4.920;2022-11-20T03:06:15;11.50;;;9.98;;
17369;SDS011;8802;52.402;4.920;2022-11-20T03:08:42;10.10;;;8.93;;
17369;SDS011;8802;52.402;4.920;2022-11-20T03:11:09;10.35;;;8.90;;
17369;SDS011;8802;52.402;4.920;2022-11-20T03:13:37;10.57;;;9.30;;
17369;SDS011;8802;52.402;4.920;2022-11-20T03:16:05;10.50;;;9.43;;
17369;SDS011;8802;52.402;4.920;2022-11-20T03:18:34;10.35;;;7.75;;
17369;SDS011;8802;52.402;4.920;2022-11-20T03:21:01;8.95;;;8.05;;
17369;SDS011;8802;52.402;4.920;2022-11-20T03:23:28;10.23;;;8.65;;
17369;SDS011;8802;52.402;4.920;2022-11-20T03:26:06;10.25;;;8.98;;
17369;SDS011;8802;52.402;4.920;2022-11-20T03:28:34;9.27;;;8.30;;
17369;SDS011;8802;52.402;4.920;2022-11-20T03:31:05;8.52;;;7.57;;
17369;SDS011;8802;52.402;4.920;2022-11-20T03:33:33;9.98;;;8.23;;
17369;SDS011;8802;52.402;4.920;2022-11-20T03:36:00;9.07;;;7.97;;
17369;SDS011;8802;52.402;4.920;2022-11-20T03:38:28;9.70;;;8.73;;
17369;SDS011;8802;52.402;4.920;2022-11-20T03:40:57;8.82;;;7.65;;
17369;SDS011;8802;52.402;4.920;2022-11-20T03:43:25;9.35;;;8.13;;
17369;SDS011;8802;52.402;4.920;2022-11-20T03:45:52;9.43;;;8.43;;
17369;SDS011;8802;52.402;4.920;2022-11-20T03:48:21;8.52;;;7.63;;
17369;SDS011;8802;52.402;4.920;2022-11-20T03:50:47;9.20;;;8.02;;
17369;SDS011;8802;52.402;4.920;2022-11-20T03:53:14;10.43;;;9.43;;
17369;SDS011;8802;52.402;4.920;2022-11-20T03:55:41;8.45;;;7.55;;
17369;SDS011;8802;52.402;4.920;2022-11-20T03:58:09;10.52;;;8.52;;
17369;SDS011;8802;52.402;4.920;2022-11-20T04:00:36;11.52;;;8.57;;
17369;SDS011;8802;52.402;4.920;2022-11-20T04:03:03;9.25;;;8.35;;
17369;SDS011;8802;52.402;4.920;2022-11-20T04:05:32;7.43;;;6.68;;
17369;SDS011;8802;52.402;4.920;2022-11-20T04:08:00;9.82;;;8.82;;
17369;SDS011;8802;52.402;4.920;2022-11-20T04:10:26;9.57;;;8.52;;
17369;SDS011;8802;52.402;4.920;2022-11-20T04:12:54;8.20;;;7.35;;
17369;SDS011;8802;52.402;4.920;2022-11-20T04:15:20;10.13;;;9.05;;
17369;SDS011;8802;52.402;4.920;2022-11-20T04:17:47;8.48;;;7.63;;
17369;SDS011;8802;52.402;4.920;2022-11-20T04:20:14;9.88;;;8.90;;
17369;SDS011;8802;52.402;4.920;2022-11-20T04:22:42;10.40;;;8.90;;
17369;SDS011;8802;52.402;4.920;2022-11-20T04:25:09;9.18;;;7.72;;
17369;SDS011;8802;52.402;4.920;2022-11-20T04:27:36;9.00;;;8.07;;
17369;SDS011;8802;52.402;4.920;2022-11-20T04:30:03;9.90;;;8.85;;
17369;SDS011;8802;52.402;4.920;2022-11-20T04:32:31;9.07;;;8.25;;
17369;SDS011;8802;52.402;4.920;2022-11-20T04:34:58;9.57;;;8.50;;
17369;SDS011;8802;52.402;4.920;2022-11-20T04:37:25;7.80;;;7.07;;
17369;SDS011;8802;52.402;4.920;2022-11-20T04:39:53;8.00;;;7.20;;
17369;SDS011;8802;52.402;4.920;2022-11-20T04:42:20;9.55;;;8.02;;
17369;SDS011;8802;52.402;4.920;2022-11-20T04:44:56;9.77;;;8.77;;
17369;SDS011;8802;52.402;4.920;2022-11-20T04:47:24;10.63;;;9.07;;
17369;SDS011;8802;52.402;4.920;2022-11-20T04:49:51;7.47;;;6.63;;
17369;SDS011;8802;52.402;4.920;2022-11-20T04:52:18;7.70;;;7.00;;
17369;SDS011;8802;52.402;4.920;2022-11-20T04:54:45;10.82;;;9.07;;
17369;SDS011;8802;52.402;4.920;2022-11-20T04:57:14;11.00;;;9.90;;
17369;SDS011;8802;52.402;4.920;2022-11-20T04:59:41;8.85;;;7.95;;
17369;SDS011;8802;52.402;4.920;2022-11-20T05:02:08;8.73;;;7.78;;
17369;SDS011;8802;52.402;4.920;2022-11-20T05:04:35;9.15;;;8.25;;
17369;SDS011;8802;52.402;4.920;2022-11-20T05:07:02;10.10;;;8.57;;
17369;SDS011;8802;52.402;4.920;2022-11-20T05:09:29;10.20;;;9.20;;
17369;SDS011;8802;52.402;4.920;2022-11-20T05:11:56;11.35;;;9.07;;
17369;SDS011;8802;52.402;4.920;2022-11-20T05:14:24;10.32;;;9.02;;
17369;SDS011;8802;52.402;4.920;2022-11-20T05:16:51;9.43;;;8.27;;
17369;SDS011;8802;52.402;4.920;2022-11-20T05:19:18;9.95;;;8.95;;
17369;SDS011;8802;52.402;4.920;2022-11-20T05:21:46;10.10;;;9.05;;
17369;SDS011;8802;52.402;4.920;2022-11-20T05:24:12;9.57;;;8.57;;
17369;SDS011;8802;52.402;4.920;2022-11-20T05:26:39;9.95;;;8.93;;
17369;SDS011;8802;52.402;4.920;2022-11-20T05:29:06;8.65;;;7.72;;
17369;SDS011;8802;52.402;4.920;2022-11-20T05:31:38;10.00;;;8.95;;
17369;SDS011;8802;52.402;4.920;2022-11-20T05:34:06;9.57;;;7.93;;
17369;SDS011;8802;52.402;4.920;2022-11-20T05:36:33;9.38;;;8.40;;
17369;SDS011;8802;52.402;4.920;2022-11-20T05:39:00;8.85;;;7.95;;
17369;SDS011;8802;52.402;4.920;2022-11-20T05:41:27;8.57;;;7.28;;
17369;SDS011;8802;52.402;4.920;2022-11-20T05:43:55;10.23;;;8.40;;
17369;SDS011;8802;52.402;4.920;2022-11-20T05:46:23;10.15;;;9.15;;
17369;SDS011;8802;52.402;4.920;2022-11-20T05:48:51;9.13;;;8.23;;
17369;SDS011;8802;52.402;4.920;2022-11-20T05:51:18;10.98;;;9.88;;
17369;SDS011;8802;52.402;4.920;2022-11-20T05:53:46;9.98;;;9.05;;
17369;SDS011;8802;52.402;4.920;2022-11-20T05:56:14;10.73;;;9.20;;
17369;SDS011;8802;52.402;4.920;2022-11-20T05:58:42;10.48;;;8.70;;
17369;SDS011;8802;52.402;4.920;2022-11-20T06:01:10;9.32;;;8.38;;
17369;SDS011;8802;52.402;4.920;2022-11-20T06:03:37;11.23;;;10.02;;
17369;SDS011;8802;52.402;4.920;2022-11-20T06:06:06;10.60;;;8.68;;
17369;SDS011;8802;52.402;4.920;2022-11-20T06:08:34;9.05;;;8.10;;
17369;SDS011;8802;52.402;4.920;2022-11-20T06:11:04;10.30;;;8.65;;
17369;SDS011;8802;52.402;4.920;2022-11-20T06:13:31;9.38;;;8.45;;
17369;SDS011;8802;52.402;4.920;2022-11-20T06:15:58;11.73;;;10.63;;
17369;SDS011;8802;52.402;4.920;2022-11-20T06:18:26;9.45;;;8.48;;
17369;SDS011;8802;52.402;4.920;2022-11-20T06:20:59;11.38;;;10.18;;
17369;SDS011;8802;52.402;4.920;2022-11-20T06:23:29;11.02;;;9.85;;
17369;SDS011;8802;52.402;4.920;2022-11-20T06:25:57;11.43;;;10.00;;
17369;SDS011;8802;52.402;4.920;2022-11-20T06:28:26;11.55;;;10.35;;
17369;SDS011;8802;52.402;4.920;2022-11-20T06:30:53;9.05;;;8.15;;
17369;SDS011;8802;52.402;4.920;2022-11-20T06:33:20;9.23;;;8.30;;
17369;SDS011;8802;52.402;4.920;2022-11-20T06:35:47;9.95;;;8.95;;
17369;SDS011;8802;52.402;4.920;2022-11-20T06:38:14;10.40;;;9.30;;
17369;SDS011;8802;52.402;4.920;2022-11-20T06:40:42;11.05;;;9.93;;
17369;SDS011;8802;52.402;4.920;2022-11-20T06:43:09;10.45;;;9.02;;
17369;SDS011;8802;52.402;4.920;2022-11-20T06:45:36;12.13;;;10.85;;
17369;SDS011;8802;52.402;4.920;2022-11-20T06:48:03;14.02;;;12.18;;
17369;SDS011;8802;52.402;4.920;2022-11-20T06:50:31;13.30;;;11.13;;
17369;SDS011;8802;52.402;4.920;2022-11-20T06:53:00;13.10;;;11.60;;
17369;SDS011;8802;52.402;4.920;2022-11-20T06:55:27;13.25;;;11.73;;
17369;SDS011;8802;52.402;4.920;2022-11-20T06:57:55;13.88;;;12.10;;
17369;SDS011;8802;52.402;4.920;2022-11-20T07:00:23;12.38;;;9.98;;
17369;SDS011;8802;52.402;4.920;2022-11-20T07:02:50;11.20;;;9.98;;
17369;SDS011;8802;52.402;4.920;2022-11-20T07:05:17;12.50;;;11.20;;
17369;SDS011;8802;52.402;4.920;2022-11-20T07:07:44;13.18;;;11.77;;
17369;SDS011;8802;52.402;4.920;2022-11-20T07:10:11;11.88;;;10.60;;
17369;SDS011;8802;52.402;4.920;2022-11-20T07:12:38;10.52;;;9.43;;
17369;SDS011;8802;52.402;4.920;2022-11-20T07:15:07;10.35;;;9.30;;
17369;SDS011;8802;52.402;4.920;2022-11-20T07:17:34;11.90;;;10.70;;
17369;SDS011;8802;52.402;4.920;2022-11-20T07:20:01;10.82;;;9.73;;
17369;SDS011;8802;52.402;4.920;2022-11-20T07:22:28;13.95;;;12.45;;
17369;SDS011;8802;52.402;4.920;2022-11-20T07:24:55;12.30;;;10.57;;
17369;SDS011;8802;52.402;4.920;2022-11-20T07:27:22;13.38;;;11.55;;
17369;SDS011;8802;52.402;4.920;2022-11-20T07:29:49;14.13;;;12.07;;
17369;SDS011;8802;52.402;4.920;2022-11-20T07:32:18;11.75;;;10.20;;
17369;SDS011;8802;52.402;4.920;2022-11-20T07:34:44;15.10;;;11.82;;
17369;SDS011;8802;52.402;4.920;2022-11-20T07:37:12;11.40;;;10.20;;
17369;SDS011;8802;52.402;4.920;2022-11-20T07:39:39;14.15;;;12.20;;
17369;SDS011;8802;52.402;4.920;2022-11-20T07:42:06;13.88;;;12.13;;
17369;SDS011;8802;52.402;4.920;2022-11-20T07:44:33;13.98;;;12.50;;
17369;SDS011;8802;52.402;4.920;2022-11-20T07:47:00;13.85;;;11.50;;
17369;SDS011;8802;52.402;4.920;2022-11-20T07:49:28;12.57;;;11.10;;
17369;SDS011;8802;52.402;4.920;2022-11-20T07:51:55;13.77;;;12.32;;
17369;SDS011;8802;52.402;4.920;2022-11-20T07:54:22;14.15;;;10.93;;
17369;SDS011;8802;52.402;4.920;2022-11-20T07:56:49;13.50;;;12.10;;
17369;SDS011;8802;52.402;4.920;2022-11-20T07:59:16;13.80;;;12.40;;
17369;SDS011;8802;52.402;4.920;2022-11-20T08:01:43;14.30;;;12.80;;
17369;SDS011;8802;52.402;4.920;2022-11-20T08:04:10;12.68;;;11.38;;
17369;SDS011;8802;52.402;4.920;2022-11-20T08:06:38;13.35;;;11.93;;
17369;SDS011;8802;52.402;4.920;2022-11-20T08:09:05;12.70;;;10.15;;
17369;SDS011;8802;52.402;4.920;2022-11-20T08:11:32;14.52;;;12.15;;
17369;SDS011;8802;52.402;4.920;2022-11-20T08:14:17;12.73;;;11.30;;
17369;SDS011;8802;52.402;4.920;2022-11-20T08:16:44;14.93;;;13.43;;
17369;SDS011;8802;52.402;4.920;2022-11-20T08:19:13;14.63;;;12.93;;
17369;SDS011;8802;52.402;4.920;2022-11-20T08:21:42;12.48;;;11.18;;
17369;SDS011;8802;52.402;4.920;2022-11-20T08:24:10;14.38;;;12.77;;
17369;SDS011;8802;52.402;4.920;2022-11-20T08:26:38;14.93;;;11.40;;
17369;SDS011;8802;52.402;4.920;2022-11-20T08:29:05;14.95;;;13.40;;
17369;SDS011;8802;52.402;4.920;2022-11-20T08:31:33;14.40;;;11.27;;
17369;SDS011;8802;52.402;4.920;2022-11-20T08:34:00;13.95;;;12.48;;
17369;SDS011;8802;52.402;4.920;2022-11-20T08:36:27;14.73;;;13.25;;
17369;SDS011;8802;52.402;4.920;2022-11-20T08:38:55;13.90;;;11.93;;
17369;SDS011;8802;52.402;4.920;2022-11-20T08:41:22;12.43;;;11.02;;
17369;SDS011;8802;52.402;4.920;2022-11-20T08:43:53;15.65;;;13.23;;
17369;SDS011;8802;52.402;4.920;2022-11-20T08:46:21;14.05;;;12.13;;
17369;SDS011;8802;52.402;4.920;2022-11-20T08:48:49;14.55;;;13.10;;
17369;SDS011;8802;52.402;4.920;2022-11-20T08:51:16;15.90;;;14.00;;
17369;SDS011;8802;52.402;4.920;2022-11-20T08:53:43;15.63;;;13.68;;
17369;SDS011;8802;52.402;4.920;2022-11-20T08:56:11;15.25;;;13.65;;
17369;SDS011;8802;52.402;4.920;2022-11-20T08:58:38;13.43;;;12.10;;
17369;SDS011;8802;52.402;4.920;2022-11-20T09:01:05;13.88;;;12.43;;
17369;SDS011;8802;52.402;4.920;2022-11-20T09:03:32;14.15;;;12.45;;
17369;SDS011;8802;52.402;4.920;2022-11-20T09:06:00;13.45;;;12.13;;
17369;SDS011;8802;52.402;4.920;2022-11-20T09:08:28;13.85;;;12.45;;
17369;SDS011;8802;52.402;4.920;2022-11-20T09:10:56;15.40;;;13.88;;
17369;SDS011;8802;52.402;4.920;2022-11-20T09:13:25;15.20;;;13.70;;
17369;SDS011;8802;52.402;4.920;2022-11-20T09:15:54;14.77;;;13.25;;
17369;SDS011;8802;52.402;4.920;2022-11-20T09:18:21;14.07;;;12.75;;
17369;SDS011;8802;52.402;4.920;2022-11-20T09:20:48;13.27;;;11.90;;
17369;SDS011;8802;52.402;4.920;2022-11-20T09:23:15;15.13;;;12.55;;
17369;SDS011;8802;52.402;4.920;2022-11-20T09:25:43;15.85;;;14.35;;
17369;SDS011;8802;52.402;4.920;2022-11-20T09:28:10;15.13;;;13.63;;
17369;SDS011;8802;52.402;4.920;2022-11-20T09:30:38;16.52;;;14.82;;
17369;SDS011;8802;52.402;4.920;2022-11-20T09:33:05;15.40;;;13.68;;
17369;SDS011;8802;52.402;4.920;2022-11-20T09:35:32;15.25;;;13.65;;
17369;SDS011;8802;52.402;4.920;2022-11-20T09:38:03;15.10;;;13.63;;
17369;SDS011;8802;52.402;4.920;2022-11-20T09:40:31;12.48;;;11.18;;
17369;SDS011;8802;52.402;4.920;2022-11-20T09:43:01;15.65;;;13.90;;
17369;SDS011;8802;52.402;4.920;2022-11-20T09:45:38;13.55;;;12.15;;
17369;SDS011;8802;52.402;4.920;2022-11-20T09:48:29;14.43;;;12.68;;
17369;SDS011;8802;52.402;4.920;2022-11-20T09:51:04;12.43;;;11.13;;
17369;SDS011;8802;52.402;4.920;2022-11-20T09:53:42;13.85;;;12.35;;
17369;SDS011;8802;52.402;4.920;2022-11-20T09:56:21;13.88;;;12.23;;
17369;SDS011;8802;52.402;4.920;2022-11-20T09:58:48;13.25;;;11.95;;
17369;SDS011;8802;52.402;4.920;2022-11-20T10:01:19;15.23;;;13.73;;
17369;SDS011;8802;52.402;4.920;2022-11-20T10:03:51;13.73;;;12.35;;
17369;SDS011;8802;52.402;4.920;2022-11-20T10:06:23;13.38;;;11.98;;
17369;SDS011;8802;52.402;4.920;2022-11-20T10:08:56;16.13;;;14.43;;
17369;SDS011;8802;52.402;4.920;2022-11-20T10:11:32;15.48;;;13.88;;
17369;SDS011;8802;52.402;4.920;2022-11-20T10:14:13;16.55;;;14.63;;
17369;SDS011;8802;52.402;4.920;2022-11-20T10:16:51;14.55;;;12.98;;
17369;SDS011;8802;52.402;4.920;2022-11-20T10:19:39;16.00;;;13.00;;
17369;SDS011;8802;52.402;4.920;2022-11-20T10:22:15;13.43;;;12.15;;
17369;SDS011;8802;52.402;4.920;2022-11-20T10:24:55;15.73;;;14.18;;
17369;SDS011;8802;52.402;4.920;2022-11-20T10:27:28;16.48;;;14.80;;
17369;SDS011;8802;52.402;4.920;2022-11-20T10:30:09;13.65;;;12.35;;
17369;SDS011;8802;52.402;4.920;2022-11-20T10:32:39;14.52;;;13.13;;
17369;SDS011;8802;52.402;4.920;2022-11-20T10:35:14;14.38;;;12.98;;
17369;SDS011;8802;52.402;4.920;2022-11-20T10:37:47;14.82;;;13.32;;
17369;SDS011;8802;52.402;4.920;2022-11-20T10:40:19;15.25;;;13.60;;
17369;SDS011;8802;52.402;4.920;2022-11-20T10:42:50;14.63;;;12.57;;
17369;SDS011;8802;52.402;4.920;2022-11-20T10:45:26;15.00;;;13.50;;
17369;SDS011;8802;52.402;4.920;2022-11-20T10:48:07;15.63;;;14.00;;
17369;SDS011;8802;52.402;4.920;2022-11-20T10:50:40;16.33;;;14.63;;
17369;SDS011;8802;52.402;4.920;2022-11-20T10:53:24;16.17;;;14.57;;
17369;SDS011;8802;52.402;4.920;2022-11-20T10:56:10;14.60;;;13.02;;
17369;SDS011;8802;52.402;4.920;2022-11-20T10:58:45;15.30;;;13.80;;
17369;SDS011;8802;52.402;4.920;2022-11-20T11:01:24;15.52;;;14.02;;
17369;SDS011;8802;52.402;4.920;2022-11-20T11:03:53;15.45;;;13.95;;
17369;SDS011;8802;52.402;4.920;2022-11-20T11:06:25;17.05;;;14.90;;
17369;SDS011;8802;52.402;4.920;2022-11-20T11:09:01;15.13;;;13.63;;
17369;SDS011;8802;52.402;4.920;2022-11-20T11:11:35;14.07;;;12.65;;
17369;SDS011;8802;52.402;4.920;2022-11-20T11:14:04;16.17;;;14.48;;
17369;SDS011;8802;52.402;4.920;2022-11-20T11:16:32;15.18;;;13.68;;
17369;SDS011;8802;52.402;4.920;2022-11-20T11:19:05;15.02;;;13.45;;
17369;SDS011;8802;52.402;4.920;2022-11-20T11:21:32;15.93;;;14.15;;
17369;SDS011;8802;52.402;4.920;2022-11-20T11:24:01;16.00;;;14.40;;
17369;SDS011;8802;52.402;4.920;2022-11-20T11:26:30;16.92;;;15.23;;
17369;SDS011;8802;52.402;4.920;2022-11-20T11:28:57;18.73;;;15.27;;
17369;SDS011;8802;52.402;4.920;2022-11-20T11:31:26;17.30;;;15.05;;
17369;SDS011;8802;52.402;4.920;2022-11-20T11:34:04;16.20;;;14.60;;
17369;SDS011;8802;52.402;4.920;2022-11-20T11:36:32;17.95;;;16.05;;
17369;SDS011;8802;52.402;4.920;2022-11-20T11:39:00;17.85;;;16.05;;
17369;SDS011;8802;52.402;4.920;2022-11-20T11:41:29;16.50;;;14.48;;
17369;SDS011;8802;52.402;4.920;2022-11-20T11:44:00;19.92;;;16.50;;
17369;SDS011;8802;52.402;4.920;2022-11-20T11:46:56;17.90;;;16.00;;
17369;SDS011;8802;52.402;4.920;2022-11-20T11:49:25;20.13;;;17.88;;
17369;SDS011;8802;52.402;4.920;2022-11-20T11:51:58;21.23;;;18.52;;
17369;SDS011;8802;52.402;4.920;2022-11-20T11:54:31;18.85;;;16.50;;
17369;SDS011;8802;52.402;4.920;2022-11-20T11:57:05;20.40;;;18.25;;
17369;SDS011;8802;52.402;4.920;2022-11-20T11:59:39;23.42;;;19.92;;
17369;SDS011;8802;52.402;4.920;2022-11-20T12:02:15;22.70;;;19.90;;
17369;SDS011;8802;52.402;4.920;2022-11-20T12:04:58;21.75;;;19.45;;
17369;SDS011;8802;52.402;4.920;2022-11-20T12:07:35;21.60;;;19.15;;
17369;SDS011;8802;52.402;4.920;2022-11-20T12:10:12;24.85;;;20.30;;
17369;SDS011;8802;52.402;4.920;2022-11-20T12:12:44;24.70;;;18.90;;
17369;SDS011;8802;52.402;4.920;2022-11-20T12:15:16;28.48;;;22.45;;
17369;SDS011;8802;52.402;4.920;2022-11-20T12:17:58;26.33;;;22.30;;
17369;SDS011;8802;52.402;4.920;2022-11-20T12:20:27;24.50;;;21.65;;
17369;SDS011;8802;52.402;4.920;2022-11-20T12:23:01;25.17;;;21.52;;
17369;SDS011;8802;52.402;4.920;2022-11-20T12:25:35;25.88;;;22.25;;
17369;SDS011;8802;52.402;4.920;2022-11-20T12:28:13;28.42;;;22.98;;
17369;SDS011;8802;52.402;4.920;2022-11-20T12:31:02;25.20;;;20.10;;
17369;SDS011;8802;52.402;4.920;2022-11-20T12:33:52;26.98;;;21.95;;
17369;SDS011;8802;52.402;4.920;2022-11-20T12:36:34;27.58;;;22.60;;
17369;SDS011;8802;52.402;4.920;2022-11-20T12:39:07;25.20;;;20.50;;
17369;SDS011;8802;52.402;4.920;2022-11-20T12:42:05;27.67;;;23.48;;
17369;SDS011;8802;52.402;4.920;2022-11-20T12:45:06;26.83;;;19.63;;
17369;SDS011;8802;52.402;4.920;2022-11-20T12:47:49;23.45;;;20.70;;
17369;SDS011;8802;52.402;4.920;2022-11-20T12:50:32;27.58;;;22.55;;
17369;SDS011;8802;52.402;4.920;2022-11-20T12:53:15;26.65;;;21.00;;
17369;SDS011;8802;52.402;4.920;2022-11-20T12:55:52;26.20;;;20.67;;
17369;SDS011;8802;52.402;4.920;2022-11-20T12:58:25;25.90;;;20.40;;
17369;SDS011;8802;52.402;4.920;2022-11-20T13:01:00;29.42;;;23.05;;
17369;SDS011;8802;52.402;4.920;2022-11-20T13:03:55;25.98;;;21.45;;
17369;SDS011;8802;52.402;4.920;2022-11-20T13:06:26;26.10;;;21.92;;
17369;SDS011;8802;52.402;4.920;2022-11-20T13:08:55;25.38;;;21.38;;
17369;SDS011;8802;52.402;4.920;2022-11-20T13:11:24;29.02;;;22.90;;
17369;SDS011;8802;52.402;4.920;2022-11-20T13:14:01;29.13;;;24.13;;
17369;SDS011;8802;52.402;4.920;2022-11-20T13:16:36;28.45;;;22.00;;
17369;SDS011;8802;52.402;4.920;2022-11-20T13:19:08;25.10;;;19.63;;
17369;SDS011;8802;52.402;4.920;2022-11-20T13:21:39;25.13;;;20.38;;
17369;SDS011;8802;52.402;4.920;2022-11-20T13:24:20;27.55;;;22.77;;
17369;SDS011;8802;52.402;4.920;2022-11-20T13:26:59;26.52;;;21.35;;
17369;SDS011;8802;52.402;4.920;2022-11-20T13:29:27;27.92;;;21.80;;
17369;SDS011;8802;52.402;4.920;2022-11-20T13:32:02;29.00;;;22.42;;
17369;SDS011;8802;52.402;4.920;2022-11-20T13:34:30;27.00;;;22.55;;
17369;SDS011;8802;52.402;4.920;2022-11-20T13:36:58;23.17;;;20.25;;
17369;SDS011;8802;52.402;4.920;2022-11-20T13:39:30;26.27;;;21.02;;
17369;SDS011;8802;52.402;4.920;2022-11-20T13:41:58;29.85;;;22.17;;
17369;SDS011;8802;52.402;4.920;2022-11-20T13:44:29;28.55;;;24.48;;
17369;SDS011;8802;52.402;4.920;2022-11-20T13:46:59;28.40;;;21.88;;
17369;SDS011;8802;52.402;4.920;2022-11-20T13:49:29;26.05;;;21.42;;
17369;SDS011;8802;52.402;4.920;2022-11-20T13:52:01;23.73;;;21.00;;
17369;SDS011;8802;52.402;4.920;2022-11-20T14:00:22;26.40;;;21.33;;
17369;SDS011;8802;52.402;4.920;2022-11-20T14:02:58;27.00;;;23.38;;
17369;SDS011;8802;52.402;4.920;2022-11-20T14:05:28;25.15;;;21.83;;
17369;SDS011;8802;52.402;4.920;2022-11-20T14:08:00;22.55;;;19.55;;
17369;SDS011;8802;52.402;4.920;2022-11-20T14:10:31;26.75;;;21.80;;
17369;SDS011;8802;52.402;4.920;2022-11-20T14:12:58;25.70;;;21.55;;
17369;SDS011;8802;52.402;4.920;2022-11-20T14:15:36;28.90;;;20.85;;
17369;SDS011;8802;52.402;4.920;2022-11-20T14:18:11;23.80;;;20.08;;
17369;SDS011;8802;52.402;4.920;2022-11-20T14:20:39;24.15;;;19.80;;
17369;SDS011;8802;52.402;4.920;2022-11-20T14:23:07;27.20;;;23.08;;
17369;SDS011;8802;52.402;4.920;2022-11-20T14:25:37;23.48;;;20.48;;
17369;SDS011;8802;52.402;4.920;2022-11-20T14:28:10;27.30;;;22.40;;
17369;SDS011;8802;52.402;4.920;2022-11-20T14:30:45;23.67;;;20.13;;
17369;SDS011;8802;52.402;4.920;2022-11-20T14:33:14;24.58;;;21.92;;
17369;SDS011;8802;52.402;4.920;2022-11-20T14:35:43;27.40;;;22.10;;
17369;SDS011;8802;52.402;4.920;2022-11-20T14:38:13;26.00;;;21.55;;
17369;SDS011;8802;52.402;4.920;2022-11-20T14:40:42;24.50;;;20.98;;
17369;SDS011;8802;52.402;4.920;2022-11-20T14:43:19;22.13;;;18.38;;
17369;SDS011;8802;52.402;4.920;2022-11-20T14:45:52;25.10;;;21.33;;
17369;SDS011;8802;52.402;4.920;2022-11-20T14:48:23;22.80;;;20.02;;
17369;SDS011;8802;52.402;4.920;2022-11-20T14:50:55;23.80;;;19.48;;
17369;SDS011;8802;52.402;4.920;2022-11-20T14:53:23;25.85;;;22.58;;
17369;SDS011;8802;52.402;4.920;2022-11-20T14:55:55;22.83;;;20.05;;
17369;SDS011;8802;52.402;4.920;2022-11-20T14:58:24;25.33;;;20.13;;
17369;SDS011;8802;52.402;4.920;2022-11-20T15:00:54;27.38;;;21.85;;
17369;SDS011;8802;52.402;4.920;2022-11-20T15:03:22;25.85;;;21.02;;
17369;SDS011;8802;52.402;4.920;2022-11-20T15:05:50;24.45;;;21.20;;
17369;SDS011;8802;52.402;4.920;2022-11-20T15:08:17;25.00;;;20.75;;